RJNO(METAR)
02/27 16:00
RJNO 270700Z 07012KT 9999 FEW030 BKN040 06/M05 Q1026 RMK A3030=
戻る
トップページへ戻る
IMOC Co,.Ltd.